Time;durP1;ratioP1;P1;durP2;ratioP2;P2;SDS_P1;SDS_P2;PMS_P1;PMS_P2;Temp;Humidity;BMP_temperature;BMP_pressure;BME280_temperature;BME280_humidity;BME280_pressure;Samples;Min_cycle;Max_cycle;Signal;HPM_P1;HPM_P2
2022/03/13 00:01:45;;;;;;;13.95;8.63;;;3.20;40.50;;;;;;626150;229;26547;-68
2022/03/13 00:04:13;;;;;;;15.43;7.97;;;3.20;40.20;;;;;;627502;227;27253;-68
2022/03/13 00:06:39;;;;;;;13.62;8.30;;;3.20;40.50;;;;;;627620;229;26582;-68
2022/03/13 00:09:06;;;;;;;11.32;7.45;;;3.10;40.40;;;;;;627198;228;27062;-68
2022/03/13 00:11:35;;;;;;;10.02;7.40;;;3.00;40.70;;;;;;626474;229;26541;-68
2022/03/13 00:14:05;;;;;;;10.00;6.85;;;3.00;41.00;;;;;;626786;229;26577;-69
2022/03/13 00:16:30;;;;;;;9.50;7.70;;;3.00;41.20;;;;;;626699;229;26571;-69
2022/03/13 00:18:58;;;;;;;12.18;7.78;;;3.00;41.20;;;;;;626830;228;26841;-68
2022/03/13 00:21:25;;;;;;;10.80;7.45;;;3.10;41.30;;;;;;626541;228;26737;-68
2022/03/13 00:23:52;;;;;;;11.57;7.78;;;3.10;41.10;;;;;;626549;228;26769;-68
2022/03/13 00:26:19;;;;;;;13.25;8.05;;;3.00;40.80;;;;;;626452;229;26556;-68
2022/03/13 00:28:46;;;;;;;10.98;7.03;;;3.00;41.20;;;;;;626485;229;27210;-68
2022/03/13 00:31:14;;;;;;;10.60;7.18;;;3.00;41.20;;;;;;626537;228;26544;-68
2022/03/13 00:33:41;;;;;;;10.85;7.22;;;2.90;41.10;;;;;;626570;228;26810;-68
2022/03/13 00:36:09;;;;;;;10.05;7.00;;;2.80;41.30;;;;;;626465;228;26536;-68
2022/03/13 00:38:37;;;;;;;9.73;6.90;;;2.80;41.20;;;;;;626507;229;26531;-68
2022/03/13 00:41:05;;;;;;;10.00;6.75;;;2.80;41.40;;;;;;626246;229;26539;-68
2022/03/13 00:43:32;;;;;;;8.70;6.30;;;2.80;41.40;;;;;;626244;229;26568;-68
2022/03/13 00:45:59;;;;;;;10.98;6.18;;;2.80;41.30;;;;;;626278;224;26541;-68
2022/03/13 00:48:27;;;;;;;9.13;6.55;;;2.70;41.50;;;;;;626205;229;27174;-68
2022/03/13 00:50:53;;;;;;;9.57;6.65;;;2.70;41.30;;;;;;626149;229;26549;-68
2022/03/13 00:53:21;;;;;;;9.48;6.22;;;2.60;41.50;;;;;;626179;230;26801;-68
2022/03/13 00:55:49;;;;;;;9.85;6.70;;;2.60;41.50;;;;;;626241;229;26543;-68
2022/03/13 00:58:17;;;;;;;8.02;6.18;;;2.50;41.50;;;;;;626228;224;26541;-68
2022/03/13 01:00:44;;;;;;;10.38;6.65;;;2.50;41.50;;;;;;626234;229;26540;-68
2022/03/13 01:03:13;;;;;;;9.40;6.70;;;2.60;41.50;;;;;;626236;229;26559;-69
2022/03/13 01:05:38;;;;;;;7.43;5.93;;;2.60;41.30;;;;;;623978;229;26851;-68
2022/03/13 01:08:06;;;;;;;8.85;6.18;;;2.60;41.30;;;;;;626188;230;26535;-69
2022/03/13 01:10:34;;;;;;;9.13;6.55;;;2.40;41.50;;;;;;626270;229;26552;-69
2022/03/13 01:13:01;;;;;;;12.63;6.55;;;2.40;41.40;;;;;;626169;229;26833;-68
2022/03/13 01:15:28;;;;;;;9.55;6.20;;;2.50;41.70;;;;;;618415;229;26588;-69
2022/03/13 01:17:56;;;;;;;8.88;6.15;;;2.40;41.10;;;;;;627630;229;26596;-68
2022/03/13 01:20:24;;;;;;;7.32;6.28;;;2.40;41.40;;;;;;627356;229;26521;-68
2022/03/13 01:22:51;;;;;;;7.05;6.10;;;2.40;41.40;;;;;;627195;229;26599;-69
2022/03/13 01:25:18;;;;;;;6.32;5.72;;;2.40;40.80;;;;;;626891;229;26589;-68
2022/03/13 01:27:46;;;;;;;7.90;6.20;;;2.40;40.90;;;;;;626889;229;26782;-68
2022/03/13 01:30:14;;;;;;;9.30;5.80;;;2.30;40.90;;;;;;626897;228;26587;-69
2022/03/13 01:32:40;;;;;;;8.93;6.22;;;2.30;41.20;;;;;;626705;229;26575;-68
2022/03/13 01:35:08;;;;;;;6.57;5.32;;;2.30;41.20;;;;;;626585;228;26544;-68
2022/03/13 01:37:35;;;;;;;8.40;6.20;;;2.30;41.20;;;;;;626619;228;26564;-68
2022/03/13 01:40:06;;;;;;;9.27;5.82;;;2.30;41.10;;;;;;626526;229;26536;-68
2022/03/13 01:42:34;;;;;;;6.78;5.57;;;2.30;41.10;;;;;;626503;228;26569;-68
2022/03/13 01:45:02;;;;;;;9.02;6.18;;;2.10;41.30;;;;;;626549;229;26565;-68
2022/03/13 01:47:29;;;;;;;8.40;5.87;;;2.10;41.40;;;;;;626552;229;26583;-68
2022/03/13 01:49:56;;;;;;;5.97;5.37;;;2.10;41.30;;;;;;626562;229;26543;-68
2022/03/13 01:52:24;;;;;;;8.05;5.85;;;2.20;41.90;;;;;;626166;229;26865;-68
2022/03/13 01:54:52;;;;;;;9.57;5.95;;;2.10;41.60;;;;;;626153;230;26536;-68
2022/03/13 01:57:20;;;;;;;7.50;5.47;;;2.10;41.70;;;;;;626246;224;26537;-68
2022/03/13 01:59:48;;;;;;;9.07;5.57;;;2.10;41.70;;;;;;626226;230;26532;-68
2022/03/13 02:02:16;;;;;;;7.60;5.18;;;2.10;41.60;;;;;;626169;229;26535;-68
2022/03/13 02:04:44;;;;;;;8.98;6.20;;;2.10;41.60;;;;;;626256;229;26547;-68
2022/03/13 02:07:12;;;;;;;7.62;5.32;;;2.00;41.80;;;;;;625922;229;26587;-68
2022/03/13 02:09:40;;;;;;;6.22;5.62;;;2.00;41.60;;;;;;626164;229;27261;-68
2022/03/13 02:12:09;;;;;;;9.23;5.87;;;2.00;41.60;;;;;;626199;229;26785;-69
2022/03/13 02:14:35;;;;;;;6.72;5.20;;;2.00;41.50;;;;;;626258;229;26549;-68
2022/03/13 02:17:02;;;;;;;6.12;5.40;;;1.90;41.50;;;;;;626238;229;26794;-68
2022/03/13 02:19:29;;;;;;;6.43;5.30;;;1.90;41.70;;;;;;626214;229;26500;-69
2022/03/13 02:21:56;;;;;;;6.12;5.53;;;1.90;41.40;;;;;;626209;229;26773;-68
2022/03/13 02:24:24;;;;;;;6.82;5.22;;;1.80;41.90;;;;;;626063;229;26543;-68
2022/03/13 02:26:55;;;;;;;6.87;5.72;;;1.80;42.10;;;;;;627057;227;26784;-68
2022/03/13 02:29:21;;;;;;;5.85;5.25;;;1.80;41.80;;;;;;627389;228;26534;-68
2022/03/13 02:31:49;;;;;;;5.87;5.37;;;1.90;41.50;;;;;;627271;229;26548;-69
2022/03/13 02:34:16;;;;;;;6.75;5.40;;;1.80;41.50;;;;;;627130;228;26597;-69
2022/03/13 02:36:58;;;;;;;6.60;5.35;;;1.80;41.50;;;;;;626927;228;26797;-67
2022/03/13 02:39:25;;;;;;;6.82;5.07;;;1.80;41.40;;;;;;626868;228;26815;-68
2022/03/13 02:41:52;;;;;;;6.82;4.97;;;1.80;41.60;;;;;;626836;228;26608;-70
2022/03/13 02:44:19;;;;;;;7.05;5.32;;;1.80;41.40;;;;;;626764;228;26602;-68
2022/03/13 02:47:03;;;;;;;6.32;5.10;;;1.80;41.60;;;;;;626533;229;26536;-68
2022/03/13 02:49:30;;;;;;;5.90;5.12;;;1.80;41.50;;;;;;626584;229;26544;-69
2022/03/13 02:51:58;;;;;;;5.20;4.68;;;1.80;41.40;;;;;;626477;229;26794;-68
2022/03/13 02:54:25;;;;;;;5.37;4.87;;;1.70;41.50;;;;;;626409;229;26552;-69
2022/03/13 02:56:53;;;;;;;6.18;5.37;;;1.70;41.50;;;;;;626529;229;26783;-69
2022/03/13 02:59:20;;;;;;;6.32;5.05;;;1.70;41.20;;;;;;626507;228;26790;-67
2022/03/13 03:01:48;;;;;;;5.50;5.00;;;1.70;41.20;;;;;;626389;228;26537;-67
2022/03/13 03:04:16;;;;;;;6.57;4.68;;;1.70;41.20;;;;;;626172;229;26555;-67
2022/03/13 03:06:50;;;;;;;5.87;5.18;;;1.70;41.20;;;;;;626136;229;26524;-68
2022/03/13 03:09:18;;;;;;;6.12;5.53;;;1.70;41.20;;;;;;626123;229;26523;-68
2022/03/13 03:11:46;;;;;;;6.55;5.15;;;1.70;41.50;;;;;;626082;229;26588;-69
2022/03/13 03:14:15;;;;;;;5.22;4.70;;;1.70;41.40;;;;;;626166;230;26833;-68
2022/03/13 03:16:41;;;;;;;5.50;4.87;;;1.70;41.40;;;;;;626169;230;27071;-69
2022/03/13 03:19:09;;;;;;;5.87;5.12;;;1.60;41.30;;;;;;626243;229;26524;-68
2022/03/13 03:21:38;;;;;;;6.62;4.95;;;1.70;41.50;;;;;;626158;229;26523;-68
2022/03/13 03:24:11;;;;;;;7.07;5.05;;;1.70;41.80;;;;;;626157;227;26555;-68
2022/03/13 03:26:38;;;;;;;5.75;5.07;;;1.70;41.40;;;;;;626281;229;26770;-67
2022/03/13 03:29:06;;;;;;;6.80;5.15;;;1.70;41.10;;;;;;626269;229;26545;-67
2022/03/13 03:31:34;;;;;;;5.65;4.40;;;1.60;41.10;;;;;;626233;230;26543;-67
2022/03/13 03:34:02;;;;;;;6.15;4.87;;;1.60;41.30;;;;;;625881;229;26548;-68
2022/03/13 03:36:29;;;;;;;5.80;5.20;;;1.60;41.30;;;;;;626227;224;26802;-68
2022/03/13 03:38:56;;;;;;;5.78;5.18;;;1.70;42.10;;;;;;627477;227;26602;-68
2022/03/13 03:41:23;;;;;;;5.18;4.68;;;1.70;42.20;;;;;;627447;228;26944;-67
2022/03/13 03:43:50;;;;;;;6.62;5.10;;;1.60;41.40;;;;;;627240;229;26587;-63
2022/03/13 03:46:18;;;;;;;5.95;4.70;;;1.60;41.50;;;;;;627112;229;26840;-63
2022/03/13 03:48:46;;;;;;;5.37;4.80;;;1.60;41.40;;;;;;626806;229;26609;-63
2022/03/13 03:51:14;;;;;;;5.35;4.70;;;1.60;41.70;;;;;;626805;229;26621;-63
2022/03/13 03:53:41;;;;;;;6.82;5.25;;;1.60;41.30;;;;;;626873;228;26952;-63
2022/03/13 03:56:08;;;;;;;5.90;5.20;;;1.60;41.10;;;;;;626695;229;26613;-63
2022/03/13 03:58:35;;;;;;;5.60;5.10;;;1.60;41.30;;;;;;626570;229;26789;-64
2022/03/13 04:01:03;;;;;;;6.25;5.15;;;1.60;41.50;;;;;;626517;228;26533;-64
2022/03/13 04:03:31;;;;;;;4.90;4.40;;;1.60;41.50;;;;;;626547;229;26593;-64
2022/03/13 04:05:58;;;;;;;4.97;4.30;;;1.60;41.70;;;;;;626547;229;26894;-64
2022/03/13 04:08:25;;;;;;;4.60;4.20;;;1.50;41.10;;;;;;626550;229;26539;-64
2022/03/13 04:10:53;;;;;;;4.93;4.50;;;1.50;41.40;;;;;;626541;229;26781;-63
2022/03/13 04:13:21;;;;;;;5.37;4.87;;;1.50;41.90;;;;;;626518;229;26559;-64
2022/03/13 04:15:49;;;;;;;7.57;4.57;;;1.50;41.70;;;;;;626226;224;26609;-64
2022/03/13 04:18:16;;;;;;;4.95;4.30;;;1.50;41.70;;;;;;626566;224;26533;-63
2022/03/13 04:20:44;;;;;;;11.85;4.97;;;1.50;41.70;;;;;;626617;229;26516;-64
2022/03/13 04:23:11;;;;;;;5.40;4.70;;;1.40;41.50;;;;;;626601;229;26533;-63
2022/03/13 04:25:38;;;;;;;5.62;5.10;;;1.50;41.30;;;;;;626615;229;26765;-64
2022/03/13 04:28:09;;;;;;;5.78;5.15;;;1.40;41.60;;;;;;626621;229;26553;-63
2022/03/13 04:30:32;;;;;;;4.78;4.28;;;1.40;41.40;;;;;;626422;229;26747;-64
2022/03/13 04:33:01;;;;;;;4.68;4.28;;;1.30;41.50;;;;;;626429;229;26551;-63
2022/03/13 04:35:28;;;;;;;4.53;4.12;;;1.30;41.70;;;;;;626203;229;26540;-63
2022/03/13 04:37:56;;;;;;;5.70;5.03;;;1.30;41.70;;;;;;626212;229;26594;-63
2022/03/13 04:40:23;;;;;;;5.47;4.37;;;1.30;41.70;;;;;;626249;230;26588;-63
2022/03/13 04:42:50;;;;;;;5.10;4.60;;;1.30;41.90;;;;;;626230;230;26564;-63
2022/03/13 04:45:18;;;;;;;5.75;4.70;;;1.40;41.60;;;;;;626220;229;26531;-64
2022/03/13 04:47:45;;;;;;;4.65;4.25;;;1.40;41.40;;;;;;626250;226;26761;-63
2022/03/13 04:50:12;;;;;;;5.70;5.10;;;1.30;41.30;;;;;;627195;227;26785;-64
2022/03/13 04:52:40;;;;;;;5.30;4.80;;;1.40;41.60;;;;;;627526;229;26563;-64
2022/03/13 04:55:09;;;;;;;5.03;4.53;;;1.30;41.40;;;;;;627251;229;26557;-63
2022/03/13 04:57:37;;;;;;;4.43;4.07;;;1.30;41.50;;;;;;627203;228;26809;-64
2022/03/13 05:00:05;;;;;;;6.50;4.95;;;1.30;42.10;;;;;;626904;229;26538;-64
2022/03/13 05:02:32;;;;;;;4.82;4.37;;;1.20;41.50;;;;;;626773;228;26635;-64
2022/03/13 05:04:59;;;;;;;6.07;4.90;;;1.30;41.40;;;;;;626882;229;26850;-64
2022/03/13 05:07:27;;;;;;;5.00;4.50;;;1.30;41.60;;;;;;626766;229;26572;-64
2022/03/13 05:09:53;;;;;;;4.68;4.18;;;1.20;41.40;;;;;;626482;229;26521;-64
2022/03/13 05:12:24;;;;;;;5.15;4.72;;;1.20;41.60;;;;;;626515;228;26544;-64
2022/03/13 05:14:48;;;;;;;5.30;4.47;;;1.20;41.60;;;;;;626300;229;26544;-64
2022/03/13 05:17:16;;;;;;;5.60;4.45;;;1.10;41.70;;;;;;626569;229;26535;-64
2022/03/13 05:19:44;;;;;;;6.28;4.80;;;1.10;41.90;;;;;;626565;229;26755;-64
2022/03/13 05:22:11;;;;;;;11.27;4.87;;;1.10;41.90;;;;;;626492;229;26778;-64
2022/03/13 05:24:38;;;;;;;15.23;4.80;;;1.00;41.70;;;;;;626587;229;26548;-64
2022/03/13 05:27:05;;;;;;;5.07;4.25;;;1.00;42.00;;;;;;626295;229;26540;-64
2022/03/13 05:29:34;;;;;;;5.05;4.57;;;1.10;42.10;;;;;;626290;229;26525;-64
2022/03/13 05:32:01;;;;;;;5.87;4.37;;;1.10;42.30;;;;;;626000;230;26586;-64
2022/03/13 05:34:28;;;;;;;4.70;4.25;;;1.10;42.10;;;;;;626253;229;26808;-64
2022/03/13 05:36:55;;;;;;;4.65;4.18;;;1.10;42.20;;;;;;626202;229;26576;-64
2022/03/13 05:39:23;;;;;;;3.83;3.53;;;1.10;42.40;;;;;;626238;229;27058;-64
2022/03/13 05:41:51;;;;;;;4.55;4.00;;;1.10;42.30;;;;;;626063;229;26570;-64
2022/03/13 05:44:19;;;;;;;5.03;4.60;;;1.20;42.40;;;;;;626075;229;26567;-63
2022/03/13 05:46:48;;;;;;;4.93;4.43;;;1.10;41.90;;;;;;626142;229;26559;-64
2022/03/13 05:49:14;;;;;;;6.03;4.60;;;1.10;41.90;;;;;;626107;229;26790;-64
2022/03/13 05:51:41;;;;;;;4.78;4.28;;;1.10;42.00;;;;;;626107;229;26536;-63
2022/03/13 05:54:08;;;;;;;4.40;4.00;;;1.10;42.10;;;;;;626214;229;27207;-64
2022/03/13 05:56:36;;;;;;;4.57;4.10;;;1.10;42.30;;;;;;626159;229;26559;-64
2022/03/13 05:59:02;;;;;;;4.57;4.18;;;1.10;42.20;;;;;;626084;230;26533;-63
2022/03/13 06:01:30;;;;;;;4.65;4.15;;;1.20;42.00;;;;;;627024;227;26579;-64
2022/03/13 06:03:58;;;;;;;4.55;4.15;;;1.20;42.00;;;;;;627663;228;26621;-63
2022/03/13 06:06:25;;;;;;;4.87;4.37;;;1.20;42.50;;;;;;627325;228;26585;-64
2022/03/13 06:08:52;;;;;;;5.18;4.30;;;1.20;42.00;;;;;;627208;229;26785;-63
2022/03/13 06:11:19;;;;;;;4.87;4.37;;;1.20;42.00;;;;;;626894;229;26536;-64
2022/03/13 06:13:46;;;;;;;4.93;4.35;;;1.20;42.00;;;;;;626820;229;26614;-63
2022/03/13 06:16:15;;;;;;;4.40;4.00;;;1.20;42.30;;;;;;626913;229;26549;-63
2022/03/13 06:18:43;;;;;;;5.53;4.55;;;1.20;42.30;;;;;;626855;229;26626;-63
2022/03/13 06:21:13;;;;;;;4.40;4.00;;;1.30;42.20;;;;;;626552;228;26551;-64
2022/03/13 06:23:39;;;;;;;4.65;4.22;;;1.40;42.00;;;;;;626402;229;26559;-64
2022/03/13 06:26:07;;;;;;;4.68;4.22;;;1.40;42.10;;;;;;626577;229;27258;-65
2022/03/13 06:28:34;;;;;;;4.90;4.32;;;1.50;41.60;;;;;;626486;229;26545;-64
2022/03/13 06:31:00;;;;;;;5.15;4.32;;;1.50;41.80;;;;;;626491;229;26787;-65
2022/03/13 06:33:30;;;;;;;4.57;4.12;;;1.50;41.60;;;;;;626551;228;26564;-64
2022/03/13 06:35:56;;;;;;;4.45;4.05;;;1.60;41.80;;;;;;626438;229;26539;-63
2022/03/13 06:38:24;;;;;;;4.85;4.15;;;1.60;41.30;;;;;;626239;229;26568;-65
2022/03/13 06:40:51;;;;;;;4.57;4.18;;;1.60;41.30;;;;;;626130;229;26800;-64
2022/03/13 06:43:18;;;;;;;5.25;4.75;;;1.60;41.80;;;;;;626058;229;26563;-64
2022/03/13 06:45:46;;;;;;;4.12;3.62;;;1.70;41.50;;;;;;626139;229;26789;-64
2022/03/13 06:48:15;;;;;;;4.50;4.10;;;1.70;41.50;;;;;;626150;229;26786;-64
2022/03/13 06:50:42;;;;;;;5.95;4.35;;;1.90;41.40;;;;;;626132;229;26540;-64
2022/03/13 06:53:10;;;;;;;5.35;4.37;;;2.00;41.60;;;;;;626216;229;26557;-64
2022/03/13 06:55:37;;;;;;;4.57;4.18;;;2.00;41.60;;;;;;626246;229;26861;-64
2022/03/13 06:58:04;;;;;;;4.70;4.25;;;2.00;41.00;;;;;;626228;229;26543;-64
2022/03/13 07:00:31;;;;;;;4.78;4.20;;;2.00;41.00;;;;;;626252;229;26888;-64
2022/03/13 07:02:58;;;;;;;4.95;4.47;;;2.10;41.30;;;;;;626234;229;26555;-64
2022/03/13 07:05:26;;;;;;;4.35;3.80;;;2.20;41.10;;;;;;626277;229;26545;-64
2022/03/13 07:07:54;;;;;;;4.95;4.47;;;2.40;40.40;;;;;;626134;229;26553;-64
2022/03/13 07:10:21;;;;;;;17.95;4.25;;;2.40;40.40;;;;;;626208;229;26633;-64
2022/03/13 07:12:48;;;;;;;9.05;4.45;;;2.50;40.30;;;;;;626837;227;26563;-64
2022/03/13 07:15:15;;;;;;;4.90;4.37;;;2.50;40.10;;;;;;627758;229;26749;-64
2022/03/13 07:17:42;;;;;;;10.05;5.22;;;2.60;39.90;;;;;;627341;229;26537;-64
2022/03/13 07:20:09;;;;;;;5.85;4.87;;;2.60;40.00;;;;;;627206;228;26865;-64
2022/03/13 07:22:36;;;;;;;6.03;4.62;;;2.60;39.80;;;;;;626869;229;26580;-64
2022/03/13 07:25:04;;;;;;;7.78;5.45;;;2.70;39.70;;;;;;626843;228;26592;-64
2022/03/13 07:27:31;;;;;;;8.05;5.55;;;2.80;39.60;;;;;;626900;229;26554;-64
2022/03/13 07:29:59;;;;;;;6.70;5.57;;;3.00;39.40;;;;;;626839;229;26620;-64
2022/03/13 07:32:27;;;;;;;6.60;5.70;;;3.00;39.40;;;;;;626538;229;26563;-64
2022/03/13 07:34:54;;;;;;;8.00;6.07;;;3.00;38.80;;;;;;626560;228;26537;-64
2022/03/13 07:37:22;;;;;;;7.45;5.62;;;3.20;38.80;;;;;;626564;229;26741;-64
2022/03/13 07:39:49;;;;;;;6.65;5.93;;;3.10;38.80;;;;;;626605;229;26730;-64
2022/03/13 07:42:17;;;;;;;7.25;5.95;;;3.20;38.80;;;;;;626456;229;26540;-64
2022/03/13 07:44:44;;;;;;;7.85;6.00;;;3.30;38.80;;;;;;626594;229;26524;-64
2022/03/13 07:47:11;;;;;;;9.65;6.60;;;3.50;39.10;;;;;;626578;228;26748;-64
2022/03/13 07:49:38;;;;;;;6.55;5.85;;;3.50;38.50;;;;;;626351;228;26516;-64
2022/03/13 07:52:06;;;;;;;6.85;5.93;;;3.60;38.50;;;;;;626168;229;26802;-64
2022/03/13 07:54:33;;;;;;;9.63;6.62;;;3.60;38.30;;;;;;626230;230;26541;-64
2022/03/13 07:57:00;;;;;;;8.25;6.70;;;3.70;38.00;;;;;;626226;224;27048;-64
2022/03/13 07:59:28;;;;;;;6.57;5.97;;;3.90;37.80;;;;;;626257;229;26542;-64
2022/03/13 08:01:56;;;;;;;7.28;6.45;;;4.00;37.30;;;;;;626208;229;26542;-65
2022/03/13 08:04:24;;;;;;;7.57;6.82;;;4.00;37.30;;;;;;626223;229;26623;-65
2022/03/13 08:06:51;;;;;;;8.02;6.70;;;4.10;37.60;;;;;;626220;229;26524;-65
2022/03/13 08:09:18;;;;;;;9.60;6.75;;;4.10;37.00;;;;;;626237;229;26794;-65
2022/03/13 08:11:45;;;;;;;7.00;6.30;;;4.20;36.90;;;;;;626253;229;26528;-65
2022/03/13 08:14:12;;;;;;;7.50;6.70;;;4.30;37.10;;;;;;626233;229;26567;-65
2022/03/13 08:16:40;;;;;;;7.18;6.40;;;4.40;36.40;;;;;;626248;229;26549;-66
2022/03/13 08:19:10;;;;;;;8.88;6.82;;;4.60;35.80;;;;;;626230;230;26609;-67
2022/03/13 08:21:35;;;;;;;17.02;7.30;;;4.50;36.00;;;;;;626137;229;26761;-64
2022/03/13 08:24:05;;;;;;;13.30;6.68;;;4.60;35.70;;;;;;626535;227;26572;-63
2022/03/13 08:26:30;;;;;;;63.15;19.00;;;4.80;35.50;;;;;;627657;228;27355;-62
2022/03/13 08:28:58;;;;;;;98.93;25.95;;;4.70;35.40;;;;;;627365;228;26797;-61
2022/03/13 08:31:25;;;;;;;110.05;23.62;;;4.90;35.20;;;;;;627099;224;26557;-62
2022/03/13 08:33:53;;;;;;;94.35;23.20;;;5.00;35.40;;;;;;626852;228;26802;-63
2022/03/13 08:36:20;;;;;;;65.50;18.62;;;5.00;35.20;;;;;;626835;224;26598;-63
2022/03/13 08:38:48;;;;;;;60.10;17.90;;;5.20;35.00;;;;;;626846;229;26612;-62
2022/03/13 08:41:16;;;;;;;47.30;15.85;;;5.30;34.80;;;;;;626860;224;26605;-63
2022/03/13 08:43:44;;;;;;;50.50;14.68;;;5.40;34.80;;;;;;626581;229;26579;-61
2022/03/13 08:46:13;;;;;;;37.45;13.18;;;5.50;35.00;;;;;;626500;228;26543;-61
2022/03/13 08:48:40;;;;;;;30.10;12.10;;;5.50;35.00;;;;;;626568;229;26535;-61
2022/03/13 08:51:08;;;;;;;25.37;10.88;;;5.60;34.50;;;;;;626506;228;26528;-62
2022/03/13 08:53:34;;;;;;;18.12;9.02;;;5.70;34.30;;;;;;626661;229;26539;-62
2022/03/13 08:56:02;;;;;;;13.85;8.13;;;5.80;34.00;;;;;;626955;229;26954;-62
2022/03/13 08:58:29;;;;;;;13.00;8.02;;;5.90;33.20;;;;;;626574;228;26501;-62
2022/03/13 09:00:57;;;;;;;11.40;7.43;;;6.10;32.50;;;;;;626339;229;26776;-62
2022/03/13 09:03:26;;;;;;;8.68;6.82;;;6.10;32.50;;;;;;626289;229;26798;-62
2022/03/13 09:05:51;;;;;;;16.77;7.85;;;6.10;31.90;;;;;;626236;229;26544;-61
2022/03/13 09:08:18;;;;;;;9.73;7.22;;;6.20;31.90;;;;;;626268;229;26541;-61
2022/03/13 09:10:46;;;;;;;13.82;6.97;;;6.50;32.10;;;;;;626209;229;26548;-61
2022/03/13 09:13:16;;;;;;;7.80;6.47;;;6.50;31.50;;;;;;626229;229;26575;-61
2022/03/13 09:15:43;;;;;;;8.70;6.28;;;6.50;31.40;;;;;;626258;224;26579;-61
2022/03/13 09:18:11;;;;;;;6.70;5.87;;;6.60;31.60;;;;;;626346;229;26528;-61
2022/03/13 09:20:38;;;;;;;7.57;6.43;;;6.60;31.20;;;;;;626231;229;26859;-61
2022/03/13 09:23:06;;;;;;;9.10;6.68;;;6.60;31.40;;;;;;626284;229;26529;-61
2022/03/13 09:25:34;;;;;;;8.15;6.25;;;6.70;30.80;;;;;;626275;229;27181;-62
2022/03/13 09:28:00;;;;;;;8.38;6.65;;;6.70;30.80;;;;;;626182;229;26540;-61
2022/03/13 09:30:27;;;;;;;8.23;5.82;;;6.90;30.80;;;;;;626221;229;26532;-62
2022/03/13 09:32:55;;;;;;;7.35;6.05;;;7.00;30.50;;;;;;626262;229;26524;-62
2022/03/13 09:35:22;;;;;;;7.97;6.90;;;7.00;30.50;;;;;;626297;227;26543;-61
2022/03/13 09:37:50;;;;;;;7.97;6.87;;;7.10;30.30;;;;;;628043;227;26543;-62
2022/03/13 09:40:17;;;;;;;9.02;6.75;;;7.20;30.40;;;;;;627490;228;27224;-62
2022/03/13 09:42:44;;;;;;;7.70;6.40;;;7.30;30.20;;;;;;627048;229;26571;-62
2022/03/13 09:45:11;;;;;;;8.57;6.43;;;7.40;30.20;;;;;;627116;228;26546;-66
2022/03/13 09:47:39;;;;;;;7.53;6.35;;;7.50;29.80;;;;;;626909;228;26574;-65
2022/03/13 09:50:08;;;;;;;7.10;6.40;;;7.50;30.30;;;;;;626909;228;26622;-66
2022/03/13 09:52:39;;;;;;;6.85;5.93;;;7.60;30.00;;;;;;626815;224;26591;-66
2022/03/13 09:55:03;;;;;;;9.38;6.20;;;7.60;30.00;;;;;;626850;229;26531;-65
2022/03/13 09:57:31;;;;;;;9.77;6.45;;;7.60;29.90;;;;;;626939;229;26865;-65
2022/03/13 09:59:59;;;;;;;8.05;6.12;;;7.80;29.80;;;;;;626962;229;26504;-64
2022/03/13 10:02:32;;;;;;;7.10;5.97;;;7.80;29.80;;;;;;626913;229;26528;-65
2022/03/13 10:04:59;;;;;;;7.10;6.10;;;7.80;29.80;;;;;;626962;228;26508;-65
2022/03/13 10:07:26;;;;;;;6.22;5.50;;;7.90;29.60;;;;;;626743;229;26513;-65
2022/03/13 10:09:55;;;;;;;7.35;6.15;;;8.10;29.50;;;;;;626965;229;26504;-65
2022/03/13 10:12:20;;;;;;;6.15;5.55;;;8.20;29.30;;;;;;626613;223;26508;-65
2022/03/13 10:15:00;;;;;;;7.87;5.57;;;8.20;29.00;;;;;;626642;229;26789;-65
2022/03/13 10:17:27;;;;;;;7.35;6.03;;;8.20;28.30;;;;;;626662;229;26771;-64
2022/03/13 10:19:55;;;;;;;8.43;6.22;;;8.40;28.40;;;;;;626489;229;26526;-65
2022/03/13 10:22:22;;;;;;;6.40;5.43;;;8.40;27.50;;;;;;626249;229;26766;-65
2022/03/13 10:24:50;;;;;;;6.90;6.15;;;8.60;27.30;;;;;;625585;229;26547;-65
2022/03/13 10:27:18;;;;;;;6.80;5.30;;;8.70;26.70;;;;;;626285;230;26535;-64
2022/03/13 10:29:47;;;;;;;6.18;5.55;;;8.70;26.70;;;;;;626243;229;26505;-66
2022/03/13 10:32:14;;;;;;;6.05;5.45;;;8.80;26.80;;;;;;626218;229;26796;-65
2022/03/13 10:34:42;;;;;;;5.72;5.25;;;8.80;26.70;;;;;;626276;229;26548;-66
2022/03/13 10:37:09;;;;;;;5.47;4.97;;;8.90;26.60;;;;;;625595;229;26790;-66
2022/03/13 10:39:37;;;;;;;6.30;5.62;;;9.00;26.20;;;;;;626265;229;26578;-65
2022/03/13 10:42:05;;;;;;;6.18;5.25;;;9.10;26.40;;;;;;626052;229;26519;-66
2022/03/13 10:44:34;;;;;;;7.05;5.32;;;9.10;26.40;;;;;;626080;229;26831;-66
2022/03/13 10:47:02;;;;;;;5.85;5.25;;;9.20;25.80;;;;;;626172;227;26542;-66
2022/03/13 10:49:32;;;;;;;5.68;5.00;;;9.30;25.90;;;;;;627746;229;27233;-69
2022/03/13 10:52:01;;;;;;;9.75;6.18;;;9.30;26.00;;;;;;627344;229;26593;-68
2022/03/13 10:54:29;;;;;;;22.75;6.87;;;9.40;26.20;;;;;;627072;228;26564;-69
2022/03/13 10:57:03;;;;;;;21.48;6.03;;;9.50;26.50;;;;;;626992;229;26781;-66
2022/03/13 10:59:30;;;;;;;12.70;5.45;;;9.50;26.50;;;;;;626800;228;26540;-67
2022/03/13 11:02:09;;;;;;;11.65;5.00;;;9.60;26.80;;;;;;626798;229;26802;-66
2022/03/13 11:04:36;;;;;;;7.18;5.12;;;9.60;26.90;;;;;;626855;229;26832;-67
2022/03/13 11:07:05;;;;;;;16.23;5.70;;;9.70;26.50;;;;;;626548;228;26568;-67
2022/03/13 11:09:32;;;;;;;6.53;5.40;;;9.80;26.80;;;;;;626502;228;26544;-67
2022/03/13 11:12:06;;;;;;;6.75;5.15;;;10.00;26.10;;;;;;626542;224;26508;-67
2022/03/13 11:14:27;;;;;;;9.57;5.62;;;10.00;26.10;;;;;;626001;229;26549;-67
2022/03/13 11:16:54;;;;;;;7.60;5.15;;;10.10;25.80;;;;;;626560;229;26548;-65
2022/03/13 11:19:23;;;;;;;7.90;5.32;;;10.10;25.80;;;;;;626569;228;26878;-65
2022/03/13 11:21:49;;;;;;;6.72;5.65;;;10.00;25.60;;;;;;626506;224;26547;-64
2022/03/13 11:24:17;;;;;;;7.18;4.97;;;10.00;26.10;;;;;;626290;229;26808;-70
2022/03/13 11:26:45;;;;;;;5.90;5.30;;;10.00;26.00;;;;;;626217;229;26544;-70
2022/03/13 11:29:10;;;;;;;8.02;5.43;;;10.00;26.20;;;;;;626142;229;26890;-69
2022/03/13 11:31:38;;;;;;;5.87;5.00;;;10.10;26.00;;;;;;626247;229;26529;-69
2022/03/13 11:34:12;;;;;;;6.82;5.18;;;10.10;25.80;;;;;;626004;229;26865;-69
2022/03/13 11:36:41;;;;;;;9.35;5.60;;;10.10;25.90;;;;;;626304;229;26767;-69
2022/03/13 11:39:06;;;;;;;7.80;5.93;;;10.20;26.00;;;;;;626201;230;26537;-69
2022/03/13 11:41:48;;;;;;;6.85;5.55;;;10.20;25.60;;;;;;626209;229;26758;-69
2022/03/13 11:44:36;;;;;;;7.20;5.43;;;10.30;25.30;;;;;;626229;229;26838;-70
2022/03/13 11:47:03;;;;;;;6.05;5.37;;;10.40;25.20;;;;;;622776;230;26568;-65
2022/03/13 11:49:37;;;;;;;7.43;5.53;;;10.50;26.00;;;;;;621119;230;26889;-65
2022/03/13 11:52:25;;;;;;;7.37;5.45;;;10.60;25.50;;;;;;626452;229;26542;-64
2022/03/13 11:54:55;;;;;;;9.95;5.93;;;10.60;25.80;;;;;;626184;230;26587;-65
2022/03/13 11:57:21;;;;;;;7.32;5.25;;;10.60;25.80;;;;;;626077;229;26524;-64
2022/03/13 12:00:01;;;;;;;8.77;5.85;;;10.80;26.10;;;;;;627285;227;26583;-64
2022/03/13 12:02:40;;;;;;;8.63;6.07;;;10.80;26.10;;;;;;627517;229;26595;-64
2022/03/13 12:05:19;;;;;;;7.82;5.72;;;10.80;26.30;;;;;;627272;228;26791;-64
2022/03/13 12:07:53;;;;;;;8.90;5.80;;;10.90;27.30;;;;;;627095;229;26512;-64
2022/03/13 12:10:30;;;;;;;12.30;6.55;;;10.90;27.40;;;;;;626832;229;26608;-64
2022/03/13 12:13:02;;;;;;;7.95;6.22;;;10.90;28.20;;;;;;624027;227;26582;-64
2022/03/13 12:15:29;;;;;;;9.27;6.50;;;10.90;28.60;;;;;;624069;230;26529;-64
2022/03/13 12:17:57;;;;;;;9.27;6.85;;;11.00;28.30;;;;;;625378;229;26504;-65
2022/03/13 12:20:25;;;;;;;7.35;6.15;;;11.00;28.20;;;;;;626610;229;26556;-64
2022/03/13 12:22:54;;;;;;;7.50;5.53;;;11.00;28.70;;;;;;626571;228;26536;-64
2022/03/13 12:25:22;;;;;;;6.20;5.60;;;11.00;28.70;;;;;;626626;229;26520;-68
2022/03/13 12:27:49;;;;;;;9.43;6.20;;;11.10;28.10;;;;;;626544;228;26797;-65
2022/03/13 12:30:16;;;;;;;9.00;5.93;;;11.10;28.30;;;;;;626621;229;26539;-65
2022/03/13 12:32:44;;;;;;;10.40;6.00;;;11.20;28.40;;;;;;625811;229;26875;-65
2022/03/13 12:35:11;;;;;;;6.05;5.43;;;11.10;28.40;;;;;;626457;229;27194;-64
2022/03/13 12:37:39;;;;;;;7.65;6.18;;;11.20;28.50;;;;;;626240;229;26544;-65
2022/03/13 12:40:07;;;;;;;8.73;5.95;;;11.20;28.00;;;;;;626267;229;26801;-69
2022/03/13 12:42:37;;;;;;;6.47;5.85;;;11.20;28.10;;;;;;626622;229;26523;-69
2022/03/13 12:45:04;;;;;;;7.03;6.05;;;11.20;28.00;;;;;;626513;229;26509;-69
2022/03/13 12:47:31;;;;;;;7.37;6.07;;;11.30;28.10;;;;;;626419;229;26799;-69
2022/03/13 12:49:58;;;;;;;12.55;5.93;;;11.30;28.00;;;;;;626649;229;26504;-68
2022/03/13 12:52:26;;;;;;;6.70;5.80;;;11.30;28.00;;;;;;626594;229;26571;-68
2022/03/13 12:54:57;;;;;;;7.55;5.62;;;11.30;27.90;;;;;;626440;229;26555;-68
2022/03/13 12:57:22;;;;;;;10.15;5.68;;;11.40;28.40;;;;;;626481;229;26549;-67